createdAt,value
2018-11-23T00:01:34.554Z,2.30
2018-11-23T00:04:02.165Z,2.20
2018-11-23T00:06:29.698Z,2.30
2018-11-23T00:08:57.261Z,2.20
2018-11-23T00:11:24.806Z,2.20
2018-11-23T00:13:52.379Z,2.20
2018-11-23T00:16:19.950Z,2.20
2018-11-23T00:18:47.494Z,2.20
2018-11-23T00:21:15.026Z,2.10
2018-11-23T00:23:42.592Z,2.10
2018-11-23T00:26:10.117Z,2.10
2018-11-23T00:28:37.678Z,2.00
2018-11-23T00:31:05.371Z,2.00
2018-11-23T00:33:32.936Z,1.90
2018-11-23T00:36:00.447Z,1.90
2018-11-23T00:38:27.998Z,1.90
2018-11-23T00:40:56.458Z,1.90
2018-11-23T00:43:24.054Z,1.90
2018-11-23T00:45:51.599Z,1.90
2018-11-23T00:48:19.142Z,2.00
2018-11-23T00:50:47.167Z,2.00
2018-11-23T00:53:14.831Z,1.90
2018-11-23T00:55:42.384Z,1.90
2018-11-23T00:58:09.935Z,1.90
2018-11-23T01:00:37.507Z,2.00
2018-11-23T01:03:05.502Z,1.90
2018-11-23T01:05:33.470Z,1.90
2018-11-23T01:08:01.021Z,1.90
2018-11-23T01:10:29.454Z,2.00
2018-11-23T01:12:57.582Z,1.90
2018-11-23T01:15:25.139Z,2.00
2018-11-23T01:17:52.809Z,2.00
2018-11-23T01:20:22.582Z,2.00
2018-11-23T01:22:50.710Z,2.00
2018-11-23T01:25:19.417Z,2.00
2018-11-23T01:27:48.098Z,1.90
2018-11-23T01:30:19.802Z,1.90
2018-11-23T01:32:47.367Z,1.90
2018-11-23T01:35:15.499Z,1.80
2018-11-23T01:37:43.063Z,1.80
2018-11-23T01:40:13.266Z,1.80
2018-11-23T01:42:40.918Z,1.80
2018-11-23T01:45:10.082Z,1.70
2018-11-23T01:47:37.618Z,1.70
2018-11-23T01:50:08.183Z,1.70
2018-11-23T01:52:35.714Z,1.70
2018-11-23T01:55:03.318Z,1.70
2018-11-23T01:57:30.846Z,1.80
2018-11-23T01:59:58.390Z,1.70
2018-11-23T02:02:25.923Z,1.70
2018-11-23T02:04:53.470Z,1.70
2018-11-23T02:07:21.023Z,1.70
2018-11-23T02:09:48.589Z,1.70
2018-11-23T02:12:16.181Z,1.70
2018-11-23T02:14:43.987Z,1.60
2018-11-23T02:17:11.534Z,1.60
2018-11-23T02:19:39.088Z,1.50
2018-11-23T02:22:06.618Z,1.50
2018-11-23T02:24:34.174Z,1.60
2018-11-23T02:27:01.946Z,1.50
2018-11-23T02:29:29.483Z,1.40
2018-11-23T02:31:57.043Z,1.50
2018-11-23T02:34:24.632Z,1.40
2018-11-23T02:36:52.190Z,1.40
2018-11-23T02:39:19.718Z,1.30
2018-11-23T02:41:47.283Z,1.30
2018-11-23T02:44:14.826Z,1.30
2018-11-23T02:46:42.378Z,1.40
2018-11-23T02:49:09.918Z,1.30
2018-11-23T02:51:37.470Z,1.40
2018-11-23T02:54:05.070Z,1.30
2018-11-23T02:56:44.321Z,1.20
2018-11-23T02:59:11.947Z,1.20
2018-11-23T03:01:39.783Z,1.30
2018-11-23T03:04:08.903Z,1.20
2018-11-23T03:06:36.586Z,1.30
2018-11-23T03:09:06.971Z,1.30
2018-11-23T03:11:34.856Z,1.40
2018-11-23T03:14:02.406Z,1.40
2018-11-23T03:16:29.967Z,1.40
2018-11-23T03:18:57.503Z,1.40
2018-11-23T03:21:25.032Z,1.40
2018-11-23T03:23:53.397Z,1.40
2018-11-23T03:26:21.192Z,1.40
2018-11-23T03:28:48.738Z,1.50
2018-11-23T03:31:16.294Z,1.60
2018-11-23T03:33:43.835Z,1.70
2018-11-23T03:36:11.395Z,1.80
2018-11-23T03:38:38.929Z,1.80
2018-11-23T03:41:06.480Z,1.80
2018-11-23T03:43:34.022Z,1.90
2018-11-23T03:46:14.966Z,1.90
2018-11-23T03:48:42.818Z,2.00
2018-11-23T03:51:10.376Z,2.10
2018-11-23T03:53:38.510Z,2.10
2018-11-23T03:56:06.251Z,2.20
2018-11-23T03:58:33.795Z,2.20
2018-11-23T04:01:01.397Z,2.30
2018-11-23T04:03:28.979Z,2.30
2018-11-23T04:05:56.530Z,2.20
2018-11-23T04:08:24.080Z,2.30
2018-11-23T04:10:51.638Z,2.30
2018-11-23T04:13:19.151Z,2.30
2018-11-23T04:15:46.745Z,2.40
2018-11-23T04:18:14.526Z,2.40
2018-11-23T04:20:46.658Z,2.40
2018-11-23T04:23:14.182Z,2.40
2018-11-23T04:25:42.128Z,2.40
2018-11-23T04:28:09.670Z,2.50
2018-11-23T04:30:37.203Z,2.40
2018-11-23T04:33:05.174Z,2.30
2018-11-23T04:35:32.730Z,2.30
2018-11-23T04:38:00.283Z,2.20
2018-11-23T04:40:27.827Z,2.20
2018-11-23T04:42:55.402Z,2.20
2018-11-23T04:45:23.455Z,2.20
2018-11-23T04:47:52.124Z,2.20
2018-11-23T04:50:19.707Z,2.30
2018-11-23T04:52:47.280Z,2.20
2018-11-23T04:55:14.837Z,2.30
2018-11-23T04:57:43.054Z,2.20
2018-11-23T05:00:12.971Z,2.30
2018-11-23T05:02:40.531Z,2.40
2018-11-23T05:05:08.995Z,2.40
2018-11-23T05:07:36.720Z,2.30
2018-11-23T05:10:10.655Z,2.40
2018-11-23T05:12:38.266Z,2.40
2018-11-23T05:15:06.579Z,2.40
2018-11-23T05:17:34.232Z,2.20
2018-11-23T05:20:01.759Z,2.20
2018-11-23T05:22:29.358Z,2.30
2018-11-23T05:24:56.902Z,2.30
2018-11-23T05:27:24.455Z,2.30
2018-11-23T05:29:51.999Z,2.40
2018-11-23T05:32:19.563Z,2.30
2018-11-23T05:34:47.123Z,2.40
2018-11-23T05:37:15.039Z,2.30
2018-11-23T05:39:42.722Z,2.40
2018-11-23T05:42:10.289Z,2.40
2018-11-23T05:44:38.175Z,2.40
2018-11-23T05:47:06.272Z,2.30
2018-11-23T05:49:33.822Z,2.30
2018-11-23T05:52:01.494Z,2.30
2018-11-23T05:54:29.037Z,2.30
2018-11-23T05:56:56.603Z,2.30
2018-11-23T05:59:24.222Z,2.30
2018-11-23T06:01:52.059Z,2.20
2018-11-23T06:04:19.674Z,2.20
2018-11-23T06:06:47.249Z,2.20
2018-11-23T06:09:14.807Z,2.20
2018-11-23T06:11:42.365Z,2.20
2018-11-23T06:14:09.922Z,2.20
2018-11-23T06:16:37.447Z,2.20
2018-11-23T06:19:05.198Z,2.10
2018-11-23T06:21:32.755Z,2.10
2018-11-23T06:24:00.378Z,2.20
2018-11-23T06:26:28.542Z,2.10
2018-11-23T06:28:56.136Z,2.00
2018-11-23T06:31:23.699Z,1.90
2018-11-23T06:33:51.246Z,1.90
2018-11-23T06:36:18.792Z,1.90
2018-11-23T06:38:46.374Z,1.90
2018-11-23T06:41:13.914Z,1.90
2018-11-23T06:43:41.540Z,1.80
2018-11-23T06:46:10.215Z,1.80
2018-11-23T06:48:37.789Z,1.80
2018-11-23T06:51:06.638Z,1.70
2018-11-23T06:53:34.207Z,1.80
2018-11-23T06:56:02.254Z,1.70
2018-11-23T06:58:29.818Z,1.70
2018-11-23T07:00:57.562Z,1.70
2018-11-23T07:03:25.399Z,1.80
2018-11-23T07:05:53.047Z,1.80
2018-11-23T07:08:21.269Z,1.80
2018-11-23T07:10:48.894Z,1.80
2018-11-23T07:13:16.458Z,1.80
2018-11-23T07:15:44.020Z,1.80
2018-11-23T07:18:11.567Z,1.90
2018-11-23T07:20:39.097Z,1.80
2018-11-23T07:23:06.882Z,1.90
2018-11-23T07:25:34.434Z,2.00
2018-11-23T07:28:01.995Z,2.00
2018-11-23T07:30:29.890Z,2.00
2018-11-23T07:32:57.442Z,1.90
2018-11-23T07:35:25.006Z,1.90
2018-11-23T07:37:52.655Z,1.90
2018-11-23T07:40:33.483Z,1.90
2018-11-23T07:43:01.040Z,2.00
2018-11-23T07:45:28.861Z,2.00
2018-11-23T07:47:56.416Z,2.10
2018-11-23T07:50:24.667Z,2.20
2018-11-23T07:52:52.291Z,2.10
2018-11-23T07:55:19.882Z,2.20
2018-11-23T07:57:47.422Z,2.20
2018-11-23T08:00:17.087Z,2.20
2018-11-23T08:02:45.370Z,2.30
2018-11-23T08:05:14.011Z,2.50
2018-11-23T08:07:41.574Z,2.60
2018-11-23T08:10:10.511Z,2.70
2018-11-23T08:12:39.224Z,2.60
2018-11-23T08:15:09.087Z,2.70
2018-11-23T08:17:36.682Z,2.60
2018-11-23T08:20:04.739Z,2.70
2018-11-23T08:22:32.266Z,2.90
2018-11-23T08:24:59.816Z,2.90
2018-11-23T08:27:27.343Z,3.00
2018-11-23T08:29:54.919Z,3.00
2018-11-23T08:32:22.485Z,3.10
2018-11-23T08:34:50.030Z,3.10
2018-11-23T08:37:17.587Z,3.20
2018-11-23T08:39:45.149Z,3.30
2018-11-23T08:42:12.691Z,3.20
2018-11-23T08:44:40.256Z,3.20
2018-11-23T08:47:07.794Z,3.40
2018-11-23T08:49:35.364Z,3.50
2018-11-23T08:52:02.905Z,3.60
2018-11-23T08:54:30.451Z,3.50
2018-11-23T08:56:57.999Z,3.60
2018-11-23T08:59:25.522Z,3.70
2018-11-23T09:01:53.114Z,3.80
2018-11-23T09:04:20.869Z,3.90
2018-11-23T09:06:48.454Z,4.00
2018-11-23T09:09:16.282Z,4.10
2018-11-23T09:11:43.883Z,4.30
2018-11-23T09:14:11.790Z,4.40
2018-11-23T09:16:39.354Z,4.60
2018-11-23T09:19:06.938Z,4.60
2018-11-23T09:21:34.668Z,4.60
2018-11-23T09:24:02.235Z,4.70
2018-11-23T09:26:29.825Z,4.80
2018-11-23T09:28:57.366Z,4.80
2018-11-23T09:31:25.084Z,4.90
2018-11-23T09:33:52.767Z,4.90
2018-11-23T09:36:20.333Z,4.90
2018-11-23T09:38:47.874Z,5.00
2018-11-23T09:41:15.802Z,5.10
2018-11-23T09:43:43.352Z,5.20
2018-11-23T09:46:10.901Z,5.30
2018-11-23T09:48:38.435Z,5.30
2018-11-23T09:51:06.040Z,5.40
2018-11-23T09:53:33.687Z,5.50
2018-11-23T09:56:01.234Z,5.70
2018-11-23T09:58:28.778Z,6.00
2018-11-23T10:00:56.343Z,6.10
2018-11-23T10:03:23.941Z,6.30
2018-11-23T10:05:52.038Z,6.40
2018-11-23T10:08:19.578Z,6.60
2018-11-23T10:10:47.133Z,6.70
2018-11-23T10:13:14.674Z,6.80
2018-11-23T10:15:42.858Z,7.10
2018-11-23T10:18:10.395Z,7.20
2018-11-23T10:20:37.926Z,7.40
2018-11-23T10:23:05.542Z,7.40
2018-11-23T10:25:34.341Z,7.60
2018-11-23T10:28:02.006Z,7.60
2018-11-23T10:30:30.878Z,7.80
2018-11-23T10:33:00.347Z,7.90
2018-11-23T10:35:28.116Z,7.90
2018-11-23T10:37:56.931Z,7.90
2018-11-23T10:40:25.802Z,7.90
2018-11-23T10:42:54.019Z,8.00
2018-11-23T10:45:24.507Z,8.00
2018-11-23T10:47:52.912Z,7.90
2018-11-23T10:50:21.702Z,7.90
2018-11-23T10:52:49.386Z,7.80
2018-11-23T10:55:19.050Z,7.80
2018-11-23T10:57:46.810Z,7.70
2018-11-23T11:00:20.991Z,7.70
2018-11-23T11:03:08.706Z,7.70
2018-11-23T11:05:36.982Z,7.70
2018-11-23T11:08:05.163Z,7.70
2018-11-23T11:10:32.718Z,7.70
2018-11-23T11:13:00.334Z,7.70
2018-11-23T11:15:27.874Z,7.80
2018-11-23T11:17:55.738Z,7.80
2018-11-23T11:20:23.289Z,7.80
2018-11-23T11:22:50.907Z,7.90
2018-11-23T11:25:18.581Z,7.90
2018-11-23T11:27:46.159Z,8.00
2018-11-23T11:30:15.333Z,8.00
2018-11-23T11:32:43.201Z,8.10
2018-11-23T11:35:11.382Z,8.10
2018-11-23T11:37:39.348Z,8.20
2018-11-23T11:40:08.751Z,8.30
2018-11-23T11:42:36.311Z,8.40
2018-11-23T11:45:04.626Z,8.50
2018-11-23T11:47:32.186Z,8.60
2018-11-23T11:49:59.714Z,8.70
2018-11-23T11:52:27.251Z,8.70
2018-11-23T11:54:54.934Z,8.80
2018-11-23T11:57:22.471Z,8.80
2018-11-23T11:59:50.194Z,8.80
2018-11-23T12:02:17.738Z,9.00
2018-11-23T12:04:45.335Z,8.90
2018-11-23T12:07:12.863Z,8.90
2018-11-23T12:09:40.594Z,9.00
2018-11-23T12:12:08.173Z,9.10
2018-11-23T12:14:35.745Z,9.20
2018-11-23T12:17:03.362Z,9.40
2018-11-23T12:19:30.919Z,9.50
2018-11-23T12:24:22.602Z,9.50
2018-11-23T12:26:50.160Z,9.70
2018-11-23T12:29:17.707Z,9.80
2018-11-23T12:31:45.239Z,9.90
2018-11-23T12:34:12.832Z,9.90
2018-11-23T12:36:40.474Z,10.00
2018-11-23T12:39:08.414Z,10.00
2018-11-23T12:41:36.634Z,10.00
2018-11-23T12:44:04.386Z,10.10
2018-11-23T12:46:31.919Z,10.10
2018-11-23T12:48:59.927Z,10.10
2018-11-23T12:51:27.450Z,10.20
2018-11-23T12:53:55.018Z,10.20
2018-11-23T12:56:22.546Z,10.30
2018-11-23T12:58:50.239Z,10.40
2018-11-23T13:01:17.779Z,10.50
2018-11-23T13:03:45.334Z,10.50
2018-11-23T13:06:12.870Z,10.50
2018-11-23T13:08:40.485Z,10.70
2018-11-23T13:11:08.920Z,10.70
2018-11-23T13:13:36.672Z,10.60
2018-11-23T13:16:04.286Z,10.60
2018-11-23T13:18:31.815Z,10.70
2018-11-23T13:20:59.375Z,10.80
2018-11-23T13:23:26.919Z,10.80
2018-11-23T13:25:54.963Z,11.00
2018-11-23T13:28:22.523Z,11.10
2018-11-23T13:30:50.072Z,11.10
2018-11-23T13:33:19.463Z,11.30
2018-11-23T13:35:47.054Z,11.30
2018-11-23T13:38:14.591Z,11.30
2018-11-23T13:40:42.316Z,11.30
2018-11-23T13:43:09.941Z,11.40
2018-11-23T13:45:37.506Z,11.40
2018-11-23T13:48:05.067Z,11.40
2018-11-23T13:50:32.627Z,11.60
2018-11-23T13:53:01.270Z,11.60
2018-11-23T13:55:28.863Z,11.60
2018-11-23T13:57:56.958Z,11.70
2018-11-23T14:00:26.572Z,11.80
2018-11-23T14:02:54.183Z,11.80
2018-11-23T14:05:23.930Z,11.70
2018-11-23T14:07:52.808Z,11.80
2018-11-23T14:10:21.570Z,11.70
2018-11-23T14:12:49.297Z,11.60
2018-11-23T14:15:21.509Z,11.60
2018-11-23T14:17:50.059Z,11.70
2018-11-23T14:20:18.381Z,11.70
2018-11-23T14:22:46.147Z,11.80
2018-11-23T14:25:15.071Z,11.80
2018-11-23T14:27:44.434Z,11.70
2018-11-23T14:30:14.886Z,11.70
2018-11-23T14:32:42.772Z,11.40
2018-11-23T14:35:12.767Z,11.30
2018-11-23T14:37:40.735Z,11.10
2018-11-23T14:40:09.158Z,11.20
2018-11-23T14:42:36.851Z,11.60
2018-11-23T14:45:07.186Z,12.40
2018-11-23T14:47:34.745Z,12.90
2018-11-23T14:50:02.305Z,13.30
2018-11-23T14:52:29.999Z,14.00
2018-11-23T14:54:57.546Z,14.60
2018-11-23T14:57:25.162Z,14.70
2018-11-23T14:59:52.691Z,14.00
2018-11-23T15:02:20.226Z,13.10
2018-11-23T15:04:47.918Z,12.20
2018-11-23T15:07:15.475Z,11.20
2018-11-23T15:09:43.018Z,10.60
2018-11-23T15:12:10.586Z,10.20
2018-11-23T15:14:38.134Z,9.70
2018-11-23T15:17:05.727Z,9.40
2018-11-23T15:19:33.284Z,9.10
2018-11-23T15:22:00.842Z,8.90
2018-11-23T15:24:28.375Z,8.70
2018-11-23T15:26:55.930Z,8.50
2018-11-23T15:29:23.463Z,8.40
2018-11-23T15:31:51.042Z,8.20
2018-11-23T15:34:18.598Z,8.20
2018-11-23T15:36:46.154Z,8.00
2018-11-23T15:39:13.947Z,7.90
2018-11-23T15:41:41.646Z,7.90
2018-11-23T15:44:09.051Z,7.80
2018-11-23T15:46:36.627Z,7.80
2018-11-23T15:49:04.222Z,7.70
2018-11-23T15:51:31.795Z,7.60
2018-11-23T15:53:59.351Z,7.50
2018-11-23T15:56:27.251Z,7.50
2018-11-23T15:58:54.838Z,7.40
2018-11-23T16:01:22.375Z,7.40
2018-11-23T16:03:50.127Z,7.30
2018-11-23T16:06:17.678Z,7.20
2018-11-23T16:08:45.223Z,7.30
2018-11-23T16:11:12.766Z,7.20
2018-11-23T16:13:40.307Z,7.10
2018-11-23T16:16:07.852Z,7.10
2018-11-23T16:18:35.402Z,7.10
2018-11-23T16:21:02.966Z,7.00
2018-11-23T16:23:37.410Z,7.00
2018-11-23T16:26:05.035Z,7.00
2018-11-23T16:28:32.800Z,6.90
2018-11-23T16:31:00.471Z,6.90
2018-11-23T16:33:28.042Z,6.80
2018-11-23T16:35:55.566Z,6.70
2018-11-23T16:38:23.741Z,6.70
2018-11-23T16:40:56.306Z,6.70
2018-11-23T16:43:23.947Z,6.70
2018-11-23T16:45:51.788Z,6.70
2018-11-23T16:48:20.010Z,6.60
2018-11-23T16:50:47.763Z,6.50
2018-11-23T16:53:15.321Z,6.50
2018-11-23T16:55:42.911Z,6.50
2018-11-23T16:58:11.528Z,6.50
2018-11-23T17:00:41.318Z,6.60
2018-11-23T17:03:12.582Z,6.60
2018-11-23T17:05:55.567Z,6.60
2018-11-23T17:08:23.202Z,6.60
2018-11-23T17:10:50.835Z,6.60
2018-11-23T17:13:18.486Z,6.60
2018-11-23T17:15:46.278Z,6.60
2018-11-23T17:18:13.910Z,6.60
2018-11-23T17:20:41.497Z,6.70
2018-11-23T17:23:10.068Z,6.60
2018-11-23T17:25:37.642Z,6.60
2018-11-23T17:28:06.589Z,6.60
2018-11-23T17:30:34.906Z,6.60
2018-11-23T17:33:02.478Z,6.50
2018-11-23T17:35:30.085Z,6.50
2018-11-23T17:37:57.694Z,6.50
2018-11-23T17:40:28.031Z,6.50
2018-11-23T17:42:55.730Z,6.40
2018-11-23T17:45:25.091Z,6.40
2018-11-23T17:47:53.298Z,6.40
2018-11-23T17:50:22.382Z,6.50
2018-11-23T17:52:50.418Z,6.50
2018-11-23T17:55:18.033Z,6.40
2018-11-23T17:57:46.455Z,6.40
2018-11-23T18:00:16.522Z,6.40
2018-11-23T18:02:44.649Z,6.40
2018-11-23T18:05:13.999Z,6.40
2018-11-23T18:07:41.686Z,6.40
2018-11-23T18:10:11.636Z,6.40
2018-11-23T18:12:39.240Z,6.40
2018-11-23T18:15:09.591Z,6.40
2018-11-23T18:17:37.178Z,6.40
2018-11-23T18:20:07.650Z,6.40
2018-11-23T18:22:35.222Z,6.30
2018-11-23T18:25:04.016Z,6.20
2018-11-23T18:27:31.587Z,6.20
2018-11-23T18:29:59.179Z,6.20
2018-11-23T18:32:26.726Z,6.20
2018-11-23T18:34:55.004Z,6.20
2018-11-23T18:37:22.605Z,6.20
2018-11-23T18:39:50.187Z,6.30
2018-11-23T18:42:17.767Z,6.30
2018-11-23T18:44:45.417Z,6.20
2018-11-23T18:47:13.646Z,6.20
2018-11-23T18:49:41.770Z,6.30
2018-11-23T18:52:09.324Z,6.20
2018-11-23T18:54:36.944Z,6.10
2018-11-23T18:57:04.783Z,6.10
2018-11-23T18:59:32.362Z,6.10
2018-11-23T19:02:00.116Z,6.00
2018-11-23T19:04:27.699Z,6.00
2018-11-23T19:06:55.270Z,6.00
2018-11-23T19:09:22.835Z,6.00
2018-11-23T19:11:50.387Z,6.10
2018-11-23T19:14:18.061Z,6.10
2018-11-23T19:16:45.615Z,6.00
2018-11-23T19:19:13.215Z,6.00
2018-11-23T19:21:41.223Z,5.90
2018-11-23T19:24:08.833Z,5.90
2018-11-23T19:26:36.394Z,5.90
2018-11-23T19:29:04.126Z,6.00
2018-11-23T19:31:31.719Z,5.90
2018-11-23T19:34:12.059Z,5.90
2018-11-23T19:36:39.637Z,5.90
2018-11-23T19:39:07.804Z,5.80
2018-11-23T19:41:35.461Z,5.90
2018-11-23T19:44:03.287Z,5.80
2018-11-23T19:46:30.935Z,5.80
2018-11-23T19:48:58.543Z,5.80
2018-11-23T19:51:26.151Z,5.70
2018-11-23T19:53:53.803Z,5.60
2018-11-23T19:56:21.414Z,5.70
2018-11-23T19:58:49.270Z,5.60
2018-11-23T20:01:16.922Z,5.60
2018-11-23T20:03:44.515Z,5.60
2018-11-23T20:06:12.106Z,5.50
2018-11-23T20:08:39.719Z,5.40
2018-11-23T20:11:07.315Z,5.50
2018-11-23T20:13:34.898Z,5.40
2018-11-23T20:16:02.766Z,5.40
2018-11-23T20:18:30.350Z,5.50
2018-11-23T20:20:57.954Z,5.30
2018-11-23T20:23:25.520Z,5.20
2018-11-23T20:25:53.117Z,5.20
2018-11-23T20:28:20.694Z,5.30
2018-11-23T20:30:48.306Z,5.10
2018-11-23T20:33:15.883Z,5.20
2018-11-23T20:35:43.909Z,5.20
2018-11-23T20:38:11.485Z,5.20
2018-11-23T20:40:39.078Z,5.10
2018-11-23T20:43:06.739Z,5.30
2018-11-23T20:45:34.446Z,5.20
2018-11-23T20:48:02.127Z,5.20
2018-11-23T20:50:29.711Z,5.20
2018-11-23T20:52:57.273Z,5.10
2018-11-23T20:55:25.242Z,5.10
2018-11-23T20:57:52.909Z,5.10
2018-11-23T21:00:20.758Z,5.00
2018-11-23T21:02:49.400Z,5.10
2018-11-23T21:05:17.898Z,5.10
2018-11-23T21:07:45.467Z,5.00
2018-11-23T21:10:29.298Z,4.90
2018-11-23T21:12:57.822Z,4.90
2018-11-23T21:15:26.577Z,4.90
2018-11-23T21:17:54.548Z,4.90
2018-11-23T21:20:22.273Z,4.90
2018-11-23T21:22:49.908Z,4.90
2018-11-23T21:25:17.479Z,4.90
2018-11-23T21:27:45.082Z,5.00
2018-11-23T21:30:19.488Z,5.00
2018-11-23T21:32:47.154Z,4.90
2018-11-23T21:35:14.826Z,4.80
2018-11-23T21:37:42.668Z,4.80
2018-11-23T21:40:11.266Z,4.70
2018-11-23T21:42:38.857Z,4.70
2018-11-23T21:45:08.529Z,4.70
2018-11-23T21:47:36.326Z,4.70
2018-11-23T21:50:05.618Z,4.70
2018-11-23T21:52:33.190Z,4.60
2018-11-23T21:55:00.805Z,4.70
2018-11-23T21:57:28.475Z,4.60
2018-11-23T21:59:56.306Z,4.50
2018-11-23T22:02:23.942Z,4.50
2018-11-23T22:04:51.542Z,4.50
2018-11-23T22:07:19.162Z,4.40
2018-11-23T22:09:46.886Z,4.50
2018-11-23T22:12:14.604Z,4.50
2018-11-23T22:14:42.244Z,4.50
2018-11-23T22:17:09.862Z,4.50
2018-11-23T22:19:37.454Z,4.50
2018-11-23T22:22:05.135Z,4.50
2018-11-23T22:24:32.790Z,4.40
2018-11-23T22:27:00.374Z,4.50
2018-11-23T22:29:27.989Z,4.50
2018-11-23T22:31:55.611Z,4.50
2018-11-23T22:34:23.223Z,4.60
2018-11-23T22:36:50.850Z,4.50
2018-11-23T22:39:18.429Z,4.60
2018-11-23T22:41:46.117Z,4.60
2018-11-23T22:44:13.729Z,4.60
2018-11-23T22:46:41.309Z,4.50
2018-11-23T22:49:08.874Z,4.60
2018-11-23T22:51:36.498Z,4.60
2018-11-23T22:54:04.465Z,4.60
2018-11-23T22:56:32.717Z,4.60
2018-11-23T22:59:00.545Z,4.60
2018-11-23T23:01:28.146Z,4.70
2018-11-23T23:03:55.721Z,4.70
2018-11-23T23:06:23.287Z,4.70
2018-11-23T23:08:50.869Z,4.60
2018-11-23T23:11:18.441Z,4.60
2018-11-23T23:13:46.077Z,4.70
2018-11-23T23:16:13.659Z,4.80
2018-11-23T23:18:41.273Z,4.80
2018-11-23T23:21:09.033Z,4.70
2018-11-23T23:23:41.477Z,4.90
2018-11-23T23:26:09.171Z,4.80
2018-11-23T23:28:36.884Z,4.80
2018-11-23T23:31:04.618Z,4.70
2018-11-23T23:33:32.314Z,4.70
2018-11-23T23:35:59.854Z,4.70
2018-11-23T23:38:27.681Z,4.60
2018-11-23T23:40:55.663Z,4.70
2018-11-23T23:43:23.482Z,4.60
2018-11-23T23:45:51.066Z,4.60
2018-11-23T23:48:18.669Z,4.50
2018-11-23T23:50:46.249Z,4.60
2018-11-23T23:53:13.866Z,4.60
2018-11-23T23:55:41.430Z,4.60
2018-11-23T23:58:09.113Z,4.50
